Time;durP1;ratioP1;P1;durP2;ratioP2;P2;SDS_P1;SDS_P2;PMS_P1;PMS_P2;Temp;Humidity;BMP_temperature;BMP_pressure;BME280_temperature;BME280_humidity;BME280_pressure;Samples;Min_cycle;Max_cycle;Signal;HPM_P1;HPM_P2
2022/11/16 00:01:10;;;;;;;13.88;12.35;;;10.70;99.90;;;;;;6044604;23;20201;-72
2022/11/16 00:03:38;;;;;;;13.50;12.10;;;10.60;99.90;;;;;;6032289;23;20206;-72
2022/11/16 00:06:07;;;;;;;14.85;13.35;;;10.70;99.90;;;;;;6008594;23;20204;-72
2022/11/16 00:08:36;;;;;;;12.65;11.55;;;10.60;99.90;;;;;;6038172;23;20235;-72
2022/11/16 00:11:05;;;;;;;14.13;12.30;;;10.60;99.90;;;;;;6017397;23;20212;-72
2022/11/16 00:13:33;;;;;;;14.68;12.68;;;10.60;99.90;;;;;;6044284;23;20279;-72
2022/11/16 00:16:00;;;;;;;14.05;12.73;;;10.50;99.90;;;;;;6027618;23;20715;-72
2022/11/16 00:18:29;;;;;;;16.48;14.35;;;10.50;99.90;;;;;;6034302;23;20205;-72
2022/11/16 00:20:56;;;;;;;14.18;12.95;;;10.40;99.90;;;;;;6049506;23;20728;-72
2022/11/16 00:23:24;;;;;;;13.38;11.35;;;10.40;99.90;;;;;;6034521;23;20192;-72
2022/11/16 00:25:52;;;;;;;15.27;13.48;;;10.40;99.90;;;;;;6006947;23;20197;-72
2022/11/16 00:28:19;;;;;;;14.00;12.70;;;10.40;99.90;;;;;;6031378;23;20201;-72
2022/11/16 00:30:46;;;;;;;13.70;12.32;;;10.40;99.90;;;;;;6033359;23;20288;-71
2022/11/16 00:33:15;;;;;;;12.77;11.57;;;10.40;99.90;;;;;;6031561;23;20208;-71
2022/11/16 00:35:43;;;;;;;13.15;11.85;;;10.40;99.90;;;;;;6037559;23;20671;-71
2022/11/16 00:38:11;;;;;;;14.50;12.18;;;10.40;99.90;;;;;;6026433;23;20698;-72
2022/11/16 00:40:37;;;;;;;15.05;13.45;;;10.30;99.90;;;;;;6029899;23;20193;-72
2022/11/16 00:43:04;;;;;;;14.23;12.93;;;10.60;99.90;;;;;;6028510;23;20197;-72
2022/11/16 00:45:32;;;;;;;15.52;13.95;;;10.40;99.90;;;;;;6038701;23;20205;-71
2022/11/16 00:47:59;;;;;;;15.90;14.27;;;10.40;99.90;;;;;;6032594;23;20198;-72
2022/11/16 00:50:26;;;;;;;16.23;14.52;;;10.40;99.90;;;;;;6033010;23;20269;-72
2022/11/16 00:52:54;;;;;;;18.80;16.90;;;10.40;99.90;;;;;;6033675;23;20196;-72
2022/11/16 00:55:21;;;;;;;16.08;14.60;;;10.30;99.90;;;;;;6027693;23;20197;-72
2022/11/16 00:57:48;;;;;;;14.65;13.15;;;10.30;99.90;;;;;;6031434;23;20227;-72
2022/11/16 01:00:17;;;;;;;14.55;13.05;;;10.30;99.90;;;;;;6033368;23;20224;-71
2022/11/16 01:02:44;;;;;;;14.98;13.38;;;10.30;99.90;;;;;;6004158;23;20201;-72
2022/11/16 01:05:11;;;;;;;13.35;12.15;;;10.30;99.90;;;;;;6032264;23;20193;-71
2022/11/16 01:07:40;;;;;;;13.82;12.35;;;10.30;99.90;;;;;;6010907;23;20691;-72
2022/11/16 01:10:12;;;;;;;10.15;9.35;;;10.20;99.90;;;;;;6032325;23;20236;-72
2022/11/16 01:12:38;;;;;;;11.48;10.43;;;10.20;99.90;;;;;;6032244;23;20209;-72
2022/11/16 01:15:09;;;;;;;12.35;11.05;;;10.20;99.90;;;;;;6013000;23;20193;-72
2022/11/16 01:17:36;;;;;;;13.43;11.15;;;10.20;99.90;;;;;;6043602;23;20213;-72
2022/11/16 01:20:05;;;;;;;12.45;11.35;;;10.10;99.90;;;;;;6033842;23;20236;-72
2022/11/16 01:22:34;;;;;;;11.20;10.20;;;10.10;99.90;;;;;;6036811;23;20196;-71
2022/11/16 01:25:01;;;;;;;11.85;10.65;;;10.10;99.90;;;;;;6032960;23;20280;-72
2022/11/16 01:27:30;;;;;;;12.93;11.73;;;10.10;99.90;;;;;;6042998;23;20193;-72
2022/11/16 01:29:57;;;;;;;11.18;10.10;;;10.10;99.90;;;;;;6032162;23;20228;-72
2022/11/16 01:32:24;;;;;;;11.65;10.60;;;10.10;99.90;;;;;;6032891;23;20283;-72
2022/11/16 01:34:51;;;;;;;12.25;11.10;;;10.10;99.90;;;;;;6035657;23;20282;-72
2022/11/16 01:37:19;;;;;;;12.32;11.23;;;10.10;99.90;;;;;;6036036;23;20617;-72
2022/11/16 01:39:45;;;;;;;11.68;10.70;;;10.10;99.90;;;;;;6034879;23;20714;-72
2022/11/16 01:42:18;;;;;;;10.30;9.32;;;10.10;99.90;;;;;;6048506;23;20206;-72
2022/11/16 01:44:58;;;;;;;11.35;10.20;;;10.10;99.90;;;;;;6043424;23;20544;-72
2022/11/16 01:47:25;;;;;;;9.52;8.25;;;10.10;99.90;;;;;;6036686;23;20196;-72
2022/11/16 01:49:56;;;;;;;10.13;9.13;;;10.10;99.90;;;;;;6058189;23;20574;-71
2022/11/16 01:52:26;;;;;;;8.82;8.13;;;10.10;99.90;;;;;;6030321;23;20591;-72
2022/11/16 01:54:55;;;;;;;9.80;8.90;;;10.00;99.90;;;;;;6041738;23;20629;-72
2022/11/16 01:57:25;;;;;;;9.07;8.00;;;10.00;99.90;;;;;;6006339;23;20242;-72
2022/11/16 01:59:57;;;;;;;9.50;8.60;;;10.00;99.90;;;;;;6032940;23;20196;-72
2022/11/16 02:02:24;;;;;;;9.27;8.38;;;9.90;99.90;;;;;;6028416;23;20671;-72
2022/11/16 02:04:53;;;;;;;8.98;8.27;;;9.90;99.90;;;;;;6060918;23;20235;-71
2022/11/16 02:09:52;;;;;;;10.18;7.90;;;9.90;99.90;;;;;;6030535;23;20288;-72
2022/11/16 02:10:32;;;;;;;10.10;9.30;;;9.80;99.90;;;;;;6032682;23;20283;-72
2022/11/16 02:13:21;;;;;;;8.90;8.20;;;9.80;99.90;;;;;;6034504;23;20219;-72
2022/11/16 02:15:55;;;;;;;9.82;8.88;;;9.80;99.90;;;;;;6001818;23;20201;-72
2022/11/16 02:18:32;;;;;;;10.80;9.70;;;9.80;99.90;;;;;;6040468;23;20609;-72
2022/11/16 02:21:09;;;;;;;14.70;10.27;;;9.80;99.90;;;;;;6008209;23;20837;-72
2022/11/16 02:24:14;;;;;;;10.57;9.68;;;9.80;99.90;;;;;;6012468;23;20204;-72
2022/11/16 02:27:10;;;;;;;11.85;10.65;;;9.80;99.90;;;;;;6039847;23;20211;-72
2022/11/16 02:29:42;;;;;;;12.25;10.95;;;9.70;99.90;;;;;;6025695;23;20702;-72
2022/11/16 02:32:15;;;;;;;11.95;10.82;;;9.80;99.90;;;;;;6031533;23;20724;-72
2022/11/16 02:34:47;;;;;;;12.45;11.35;;;9.80;99.90;;;;;;6008019;23;20587;-72
2022/11/16 02:37:18;;;;;;;11.90;10.80;;;9.80;99.90;;;;;;6031210;23;20216;-72
2022/11/16 02:39:47;;;;;;;13.20;12.10;;;9.80;99.90;;;;;;6039830;23;20193;-72
2022/11/16 02:42:22;;;;;;;12.45;11.35;;;9.80;99.90;;;;;;6038902;23;20200;-72
2022/11/16 02:44:54;;;;;;;14.75;13.35;;;9.80;99.90;;;;;;6043900;23;20645;-72
2022/11/16 02:47:26;;;;;;;12.85;11.65;;;9.80;99.90;;;;;;6034761;23;20199;-72
2022/11/16 02:49:58;;;;;;;14.98;11.43;;;9.80;99.90;;;;;;6005849;23;20204;-72
2022/11/16 02:52:28;;;;;;;13.20;12.00;;;9.80;99.90;;;;;;6032495;23;20582;-72
2022/11/16 02:54:55;;;;;;;11.82;10.75;;;9.80;99.90;;;;;;6027483;23;20201;-72
2022/11/16 02:57:33;;;;;;;12.98;11.70;;;9.80;99.90;;;;;;6005535;23;20274;-73
2022/11/16 03:00:04;;;;;;;13.25;12.15;;;9.80;99.90;;;;;;6028317;23;20243;-72
2022/11/16 03:02:37;;;;;;;14.05;11.95;;;9.70;99.90;;;;;;6049458;23;20202;-72
2022/11/16 03:05:08;;;;;;;12.77;11.48;;;9.70;99.90;;;;;;6050635;23;20204;-72
2022/11/16 03:07:42;;;;;;;11.88;10.88;;;9.80;99.90;;;;;;6035351;23;20637;-72
2022/11/16 03:11:57;;;;;;;14.75;13.40;;;9.80;99.90;;;;;;6017506;23;20327;-72
2022/11/16 03:12:58;;;;;;;14.65;13.35;;;9.70;99.90;;;;;;6032334;23;20236;-72
2022/11/16 03:15:28;;;;;;;12.13;11.02;;;9.80;99.90;;;;;;6031762;23;20197;-72
2022/11/16 03:17:56;;;;;;;12.70;11.60;;;9.80;99.90;;;;;;6031400;23;20225;-72
2022/11/16 03:20:27;;;;;;;13.38;12.23;;;9.70;99.90;;;;;;6038109;23;20224;-72
2022/11/16 03:22:58;;;;;;;14.80;13.52;;;9.80;99.90;;;;;;6035423;23;20228;-72
2022/11/16 03:25:31;;;;;;;13.20;11.90;;;9.70;99.90;;;;;;6034020;23;20229;-72
2022/11/16 03:28:06;;;;;;;13.63;12.52;;;9.80;99.90;;;;;;6031999;23;20231;-72
2022/11/16 03:30:41;;;;;;;11.68;10.68;;;9.70;99.90;;;;;;6030849;23;20287;-72
2022/11/16 03:33:16;;;;;;;13.38;12.18;;;9.80;99.90;;;;;;6034681;23;20244;-73
2022/11/16 03:35:49;;;;;;;12.55;11.45;;;9.80;99.90;;;;;;6013848;23;20196;-72
2022/11/16 03:38:18;;;;;;;12.93;11.80;;;9.80;99.90;;;;;;6031572;23;20343;-72
2022/11/16 03:40:47;;;;;;;12.50;11.40;;;9.80;99.90;;;;;;6031186;23;20197;-72
2022/11/16 03:43:15;;;;;;;12.40;11.30;;;9.70;99.90;;;;;;6033054;23;20275;-71
2022/11/16 03:45:45;;;;;;;12.15;10.98;;;9.70;99.90;;;;;;6034558;23;20201;-72
2022/11/16 03:48:12;;;;;;;13.07;11.65;;;9.70;99.90;;;;;;6037216;23;20610;-72
2022/11/16 03:50:40;;;;;;;12.23;11.13;;;9.70;99.90;;;;;;6032723;23;20211;-72
2022/11/16 03:53:08;;;;;;;12.85;11.60;;;9.70;99.90;;;;;;6033528;23;20277;-72
2022/11/16 03:55:35;;;;;;;14.02;12.80;;;9.70;99.90;;;;;;6045327;23;20193;-72
2022/11/16 03:58:02;;;;;;;13.43;12.23;;;9.70;99.90;;;;;;6010953;23;20236;-72
2022/11/16 04:00:29;;;;;;;14.10;12.75;;;9.70;99.90;;;;;;6031905;23;20258;-72
2022/11/16 04:02:57;;;;;;;12.90;11.80;;;9.70;99.90;;;;;;6039409;23;20734;-71
2022/11/16 04:24:54;;;;;;;11.05;10.05;;;10.10;99.90;;;;;;6006098;23;20284;-72
2022/11/16 04:30:12;;;;;;;10.75;9.85;;;10.20;99.90;;;;;;6031721;23;20240;-71
2022/11/16 04:38:09;;;;;;;11.18;10.18;;;10.10;99.90;;;;;;6024247;23;20228;-72
2022/11/16 04:40:37;;;;;;;11.05;10.10;;;10.10;99.90;;;;;;6031066;23;20325;-72
2022/11/16 04:43:05;;;;;;;10.70;9.70;;;10.10;99.90;;;;;;6033072;23;20200;-72
2022/11/16 04:48:19;;;;;;;10.32;9.45;;;10.00;99.90;;;;;;6045861;23;20224;-72
2022/11/16 04:50:47;;;;;;;9.45;8.65;;;10.10;99.90;;;;;;6040671;23;20272;-72
2022/11/16 04:53:15;;;;;;;9.85;9.02;;;10.00;99.90;;;;;;6034371;23;20221;-72
2022/11/16 04:55:42;;;;;;;11.55;10.45;;;10.10;99.90;;;;;;6035084;23;20192;-72
2022/11/16 04:58:09;;;;;;;9.13;8.25;;;10.00;99.90;;;;;;6028626;23;20243;-72
2022/11/16 05:00:36;;;;;;;10.30;9.30;;;10.10;99.90;;;;;;6028694;23;20196;-72
2022/11/16 05:03:04;;;;;;;10.52;9.63;;;10.10;99.90;;;;;;6032117;23;20284;-72
2022/11/16 05:05:31;;;;;;;9.43;8.63;;;10.10;99.90;;;;;;6037136;23;20203;-72
2022/11/16 05:08:00;;;;;;;12.13;10.95;;;10.10;99.90;;;;;;6034623;23;20196;-72
2022/11/16 05:10:27;;;;;;;10.85;9.75;;;10.10;99.90;;;;;;5995884;23;20275;-72
2022/11/16 05:12:55;;;;;;;11.25;10.25;;;10.10;99.90;;;;;;6034930;23;20264;-72
2022/11/16 05:15:22;;;;;;;10.55;9.40;;;10.10;99.90;;;;;;6014771;23;20205;-72
2022/11/16 05:17:53;;;;;;;12.07;11.00;;;10.10;99.90;;;;;;6024999;23;20217;-72
2022/11/16 05:24:32;;;;;;;10.90;9.90;;;10.10;99.90;;;;;;6043419;23;20235;-72
2022/11/16 05:25:53;;;;;;;10.98;9.85;;;10.10;99.90;;;;;;6033932;23;20201;-72
2022/11/16 05:28:20;;;;;;;12.02;10.90;;;10.10;99.90;;;;;;6045161;23;20774;-72
2022/11/16 05:30:49;;;;;;;11.50;10.40;;;10.10;99.90;;;;;;6035958;23;20205;-72
2022/11/16 05:33:17;;;;;;;10.00;9.20;;;10.00;99.90;;;;;;6032463;23;20193;-72
2022/11/16 05:35:45;;;;;;;9.93;9.13;;;10.00;99.90;;;;;;6019210;23;20224;-72
2022/11/16 05:38:14;;;;;;;11.00;10.10;;;10.00;99.90;;;;;;6030275;23;20288;-72
2022/11/16 05:40:41;;;;;;;11.05;10.02;;;10.10;99.90;;;;;;6033056;23;20200;-72
2022/11/16 05:43:09;;;;;;;10.93;10.02;;;10.00;99.90;;;;;;6031779;23;20221;-78
2022/11/16 05:45:36;;;;;;;10.70;9.80;;;10.00;99.90;;;;;;6025662;23;20200;-81
2022/11/16 05:48:04;;;;;;;11.23;10.38;;;10.10;99.90;;;;;;6026685;23;20209;-73
2022/11/16 05:50:31;;;;;;;10.50;9.55;;;10.30;99.90;;;;;;6020536;23;20195;-73
2022/11/16 05:52:58;;;;;;;10.35;9.40;;;10.10;99.90;;;;;;6047433;23;20223;-73
2022/11/16 05:55:27;;;;;;;10.50;9.60;;;10.10;99.90;;;;;;6031863;23;20275;-73
2022/11/16 05:57:54;;;;;;;10.13;9.23;;;10.10;99.90;;;;;;6028584;23;22475;-73
2022/11/16 06:00:21;;;;;;;8.75;8.05;;;10.10;99.90;;;;;;6033011;23;20925;-73
2022/11/16 06:02:48;;;;;;;9.30;8.32;;;10.10;99.90;;;;;;6034100;23;20264;-73
2022/11/16 06:05:16;;;;;;;9.00;8.20;;;10.10;99.90;;;;;;6044507;23;20291;-72
2022/11/16 06:07:43;;;;;;;9.77;8.98;;;10.10;99.90;;;;;;6001531;23;20224;-74
2022/11/16 06:10:10;;;;;;;9.18;7.93;;;10.20;99.90;;;;;;6043255;23;20661;-73
2022/11/16 06:12:38;;;;;;;7.70;7.00;;;10.20;99.90;;;;;;6042622;23;20276;-73
2022/11/16 06:15:06;;;;;;;6.75;6.22;;;10.20;99.90;;;;;;6057272;23;20196;-73
2022/11/16 06:17:34;;;;;;;8.15;7.45;;;10.20;99.90;;;;;;6040093;23;20203;-74
2022/11/16 06:20:01;;;;;;;7.40;6.70;;;10.20;99.90;;;;;;6037108;23;20686;-73
2022/11/16 06:22:28;;;;;;;7.30;6.70;;;10.30;99.90;;;;;;6028194;23;20220;-74
2022/11/16 06:24:55;;;;;;;6.90;6.40;;;10.30;99.90;;;;;;6042932;23;20248;-73
2022/11/16 06:27:22;;;;;;;7.53;6.93;;;10.30;99.90;;;;;;6033146;23;20197;-74
2022/11/16 06:29:51;;;;;;;7.05;6.45;;;10.40;99.90;;;;;;6038589;23;20780;-73
2022/11/16 06:32:17;;;;;;;7.18;6.63;;;10.40;99.90;;;;;;6044103;23;20195;-74
2022/11/16 06:34:45;;;;;;;8.27;7.50;;;10.40;99.90;;;;;;6035768;23;20268;-74
2022/11/16 06:37:12;;;;;;;7.80;7.10;;;10.40;99.90;;;;;;6033834;23;20706;-73
2022/11/16 06:39:39;;;;;;;8.10;7.30;;;10.50;99.90;;;;;;6031193;23;20678;-73
2022/11/16 06:42:06;;;;;;;6.63;6.13;;;10.50;99.90;;;;;;6044310;23;20308;-73
2022/11/16 06:44:35;;;;;;;6.75;6.15;;;10.50;99.90;;;;;;6053282;23;20597;-73
2022/11/16 06:47:04;;;;;;;7.35;6.60;;;10.50;99.90;;;;;;6021395;23;20194;-73
2022/11/16 06:49:32;;;;;;;7.07;6.47;;;10.50;99.90;;;;;;6019284;23;20259;-74
2022/11/16 06:51:59;;;;;;;7.38;6.78;;;10.50;99.90;;;;;;6023834;23;20189;-73
2022/11/16 06:54:27;;;;;;;7.95;7.25;;;10.50;99.90;;;;;;6053104;23;20185;-74
2022/11/16 06:56:54;;;;;;;6.40;5.75;;;10.60;99.90;;;;;;6048205;23;20190;-73
2022/11/16 06:59:21;;;;;;;5.75;5.25;;;10.60;99.90;;;;;;6032428;23;20240;-73
2022/11/16 07:01:49;;;;;;;6.95;6.20;;;10.60;99.90;;;;;;6035474;23;20269;-73
2022/11/16 07:04:18;;;;;;;5.90;5.35;;;10.60;99.90;;;;;;6025234;23;20707;-73
2022/11/16 07:06:46;;;;;;;8.38;6.25;;;10.50;99.90;;;;;;6031469;23;20264;-73
2022/11/16 07:09:15;;;;;;;5.35;4.85;;;10.60;99.90;;;;;;6051122;23;20539;-73
2022/11/16 07:11:42;;;;;;;5.28;4.78;;;10.60;99.90;;;;;;6036369;23;20244;-73
2022/11/16 07:14:10;;;;;;;3.97;3.67;;;10.60;99.90;;;;;;6046371;23;20715;-73
2022/11/16 07:16:37;;;;;;;4.03;3.72;;;10.60;99.90;;;;;;6041342;23;20669;-73
2022/11/16 07:19:06;;;;;;;3.60;3.30;;;10.60;99.90;;;;;;6038543;23;20685;-73
2022/11/16 07:21:35;;;;;;;3.70;3.40;;;10.70;99.90;;;;;;6038738;23;20243;-74
2022/11/16 07:24:02;;;;;;;3.42;3.22;;;10.70;99.90;;;;;;6041255;23;20245;-73
2022/11/16 07:26:30;;;;;;;3.67;3.25;;;10.70;99.90;;;;;;6046203;23;20543;-74
2022/11/16 07:28:58;;;;;;;3.90;3.60;;;10.80;99.90;;;;;;6043498;23;20181;-74
2022/11/16 07:31:25;;;;;;;3.03;2.83;;;10.80;99.90;;;;;;6042436;23;20185;-73
2022/11/16 07:33:53;;;;;;;3.65;2.72;;;10.80;99.90;;;;;;6022089;23;20221;-73
2022/11/16 07:36:21;;;;;;;2.33;2.20;;;10.80;99.90;;;;;;6036694;23;20814;-73
2022/11/16 07:41:25;;;;;;;3.53;2.83;;;10.90;99.90;;;;;;6091302;22;20222;-73
2022/11/16 07:43:53;;;;;;;3.75;3.00;;;10.90;99.90;;;;;;6113593;23;20266;-73
2022/11/16 07:46:22;;;;;;;2.95;2.75;;;11.00;99.90;;;;;;6116910;23;20230;-72
2022/11/16 07:48:49;;;;;;;3.67;3.38;;;11.00;99.90;;;;;;6104216;23;20197;-72
2022/11/16 07:51:17;;;;;;;3.25;2.50;;;11.10;99.90;;;;;;6119361;23;20187;-72
2022/11/16 07:53:45;;;;;;;3.22;2.92;;;11.10;99.90;;;;;;6084768;23;20192;-72
2022/11/16 07:56:13;;;;;;;3.05;2.83;;;11.20;99.90;;;;;;6119770;23;20209;-73
2022/11/16 07:58:42;;;;;;;3.22;2.95;;;11.20;99.90;;;;;;6090056;23;20595;-73
2022/11/16 08:01:11;;;;;;;2.78;2.58;;;11.30;99.90;;;;;;6104618;23;20279;-72
2022/11/16 08:03:39;;;;;;;2.42;2.22;;;11.30;99.90;;;;;;6109693;23;20270;-72
2022/11/16 08:06:10;;;;;;;2.70;2.50;;;11.40;99.90;;;;;;6091477;23;20248;-73
2022/11/16 08:08:38;;;;;;;2.50;2.30;;;11.40;99.90;;;;;;6116608;23;20206;-73
2022/11/16 08:11:06;;;;;;;2.85;2.55;;;11.40;99.90;;;;;;6106375;23;20232;-74
2022/11/16 08:13:36;;;;;;;2.40;2.20;;;11.40;99.90;;;;;;6081742;23;20188;-73
2022/11/16 08:16:08;;;;;;;2.53;2.17;;;11.40;99.90;;;;;;6106797;23;20215;-73
2022/11/16 08:18:36;;;;;;;3.88;2.30;;;11.30;99.90;;;;;;6107130;23;20298;-72
2022/11/16 08:21:04;;;;;;;4.15;1.90;;;11.30;99.90;;;;;;6105955;23;20747;-72
2022/11/16 08:23:35;;;;;;;2.95;2.03;;;11.30;99.90;;;;;;6113815;23;20202;-72
2022/11/16 08:26:05;;;;;;;2.45;2.00;;;11.30;99.90;;;;;;6101408;23;20191;-72
2022/11/16 08:28:32;;;;;;;1.70;1.60;;;11.30;99.90;;;;;;6107616;23;20218;-72
2022/11/16 08:31:01;;;;;;;2.35;2.03;;;11.40;99.90;;;;;;6116715;23;20193;-72
2022/11/16 08:33:31;;;;;;;2.17;1.98;;;11.40;99.90;;;;;;6115268;23;20365;-71
2022/11/16 08:36:04;;;;;;;2.17;1.80;;;11.50;99.90;;;;;;6102309;23;20195;-72
2022/11/16 08:38:31;;;;;;;3.67;1.90;;;11.60;99.90;;;;;;6112184;23;20249;-72
2022/11/16 08:40:58;;;;;;;3.15;1.63;;;11.70;99.90;;;;;;6115838;23;20636;-72
2022/11/16 08:43:25;;;;;;;2.50;1.95;;;11.80;99.90;;;;;;6090284;23;20187;-72
2022/11/16 08:45:53;;;;;;;1.95;1.70;;;11.80;99.90;;;;;;6112690;23;20208;-69
2022/11/16 08:48:20;;;;;;;2.53;1.70;;;12.10;99.90;;;;;;6085307;23;20229;-69
2022/11/16 08:50:48;;;;;;;1.40;1.30;;;12.20;99.90;;;;;;6134129;23;20183;-72
2022/11/16 08:53:15;;;;;;;2.25;1.42;;;12.30;99.90;;;;;;6098062;23;20203;-72
2022/11/16 08:55:42;;;;;;;2.67;1.90;;;12.50;99.90;;;;;;6107618;23;20187;-72
2022/11/16 08:58:10;;;;;;;3.43;1.40;;;12.50;99.90;;;;;;6094243;23;20434;-72
2022/11/16 09:00:38;;;;;;;2.50;1.17;;;12.50;99.90;;;;;;6107955;23;20461;-72
2022/11/16 09:03:06;;;;;;;1.97;1.10;;;12.60;99.90;;;;;;6108662;23;20435;-73
2022/11/16 09:05:33;;;;;;;4.93;1.23;;;12.60;99.90;;;;;;6103278;23;20439;-72
2022/11/16 09:08:04;;;;;;;1.57;1.10;;;12.70;99.90;;;;;;6100955;23;20869;-72
2022/11/16 09:10:31;;;;;;;1.93;1.30;;;12.90;99.90;;;;;;6107048;23;20427;-72
2022/11/16 09:12:58;;;;;;;5.00;1.10;;;12.80;99.90;;;;;;6106858;23;20733;-72
2022/11/16 09:15:26;;;;;;;2.40;1.20;;;12.80;99.90;;;;;;6100883;23;20449;-72
2022/11/16 09:17:54;;;;;;;1.93;1.10;;;12.80;99.90;;;;;;6111292;23;20959;-72
2022/11/16 09:20:21;;;;;;;3.33;1.40;;;12.90;99.90;;;;;;6113290;23;20462;-73
2022/11/16 09:22:48;;;;;;;3.37;1.30;;;13.30;99.90;;;;;;6109701;23;20433;-73
2022/11/16 09:25:17;;;;;;;1.80;1.13;;;13.80;99.90;;;;;;6111506;23;20441;-72
2022/11/16 09:27:44;;;;;;;2.10;1.10;;;14.60;99.90;;;;;;6117587;23;20421;-73
2022/11/16 09:30:12;;;;;;;2.60;1.17;;;15.30;99.90;;;;;;6112081;23;20441;-73
2022/11/16 09:32:39;;;;;;;1.40;1.10;;;15.90;99.90;;;;;;6114042;23;20555;-73
2022/11/16 09:35:07;;;;;;;2.23;1.20;;;16.60;99.90;;;;;;6107893;23;20445;-73
2022/11/16 09:37:34;;;;;;;2.53;1.10;;;17.10;99.90;;;;;;6112521;23;20434;-74
2022/11/16 09:40:01;;;;;;;2.03;1.07;;;17.50;99.90;;;;;;6111516;23;20461;-70
2022/11/16 09:42:38;;;;;;;3.20;1.00;;;17.70;99.90;;;;;;6120074;23;20453;-70
2022/11/16 09:45:07;;;;;;;1.10;1.00;;;18.10;99.90;;;;;;6119213;23;20440;-73
2022/11/16 09:47:43;;;;;;;1.67;1.10;;;18.80;99.90;;;;;;6114909;23;20463;-73
2022/11/16 09:50:27;;;;;;;2.17;1.30;;;19.20;99.90;;;;;;6115551;23;20441;-74
2022/11/16 09:53:00;;;;;;;2.20;1.40;;;19.70;99.90;;;;;;6111126;23;20434;-73
2022/11/16 09:55:33;;;;;;;1.70;1.00;;;20.20;99.90;;;;;;6093091;23;20612;-73
2022/11/16 09:58:07;;;;;;;1.97;1.10;;;20.60;99.90;;;;;;6116384;23;20461;-73
2022/11/16 10:00:35;;;;;;;3.80;1.57;;;20.60;99.90;;;;;;6118659;23;20464;-73
2022/11/16 10:03:06;;;;;;;4.60;1.30;;;20.40;99.90;;;;;;6110390;23;20925;-73
2022/11/16 10:05:38;;;;;;;2.00;0.97;;;19.80;99.90;;;;;;6110600;23;20469;-73
2022/11/16 10:08:14;;;;;;;1.27;1.10;;;19.00;99.90;;;;;;6109386;23;20451;-73
2022/11/16 10:10:51;;;;;;;2.07;1.50;;;18.50;99.90;;;;;;6113676;23;20444;-73
2022/11/16 10:13:35;;;;;;;2.43;1.13;;;18.20;99.90;;;;;;6110856;23;20786;-73
2022/11/16 10:16:11;;;;;;;2.10;1.10;;;18.10;99.90;;;;;;6092309;23;20423;-74
2022/11/16 10:18:49;;;;;;;2.03;1.10;;;18.30;99.90;;;;;;6108142;23;20950;-73
2022/11/16 10:21:33;;;;;;;2.07;1.30;;;18.00;99.90;;;;;;6114127;23;20500;-72
2022/11/16 10:24:21;;;;;;;2.53;1.30;;;17.30;99.90;;;;;;6116665;23;20504;-73
2022/11/16 10:26:54;;;;;;;2.73;1.40;;;16.70;99.90;;;;;;6106916;23;20434;-73
2022/11/16 10:29:34;;;;;;;2.10;1.00;;;16.30;99.90;;;;;;6104500;23;20434;-72
2022/11/16 10:32:13;;;;;;;2.63;1.17;;;15.80;99.90;;;;;;6115135;23;20432;-72
2022/11/16 10:34:45;;;;;;;2.00;1.00;;;15.40;99.90;;;;;;6128533;23;20516;-72
2022/11/16 10:37:13;;;;;;;2.47;1.20;;;15.00;99.90;;;;;;6126111;23;20784;-72
2022/11/16 10:39:41;;;;;;;3.30;1.23;;;14.80;99.90;;;;;;6116287;23;20511;-73
2022/11/16 10:42:13;;;;;;;3.93;1.53;;;14.70;99.90;;;;;;6113440;23;20901;-73
2022/11/16 10:44:45;;;;;;;3.20;1.40;;;14.50;99.90;;;;;;6110987;23;20440;-72
2022/11/16 10:47:19;;;;;;;2.40;1.50;;;14.30;99.90;;;;;;6090682;23;20422;-72
2022/11/16 10:49:53;;;;;;;2.50;1.37;;;14.10;99.90;;;;;;6114223;23;20453;-73
2022/11/16 10:52:20;;;;;;;2.33;1.10;;;14.10;99.90;;;;;;6121828;23;20803;-73
2022/11/16 10:54:47;;;;;;;4.30;1.50;;;14.10;99.90;;;;;;6118013;23;20439;-72
2022/11/16 10:57:16;;;;;;;2.63;1.47;;;14.10;99.90;;;;;;6116247;23;20438;-73
2022/11/16 10:59:46;;;;;;;2.60;1.27;;;14.30;99.90;;;;;;6119211;23;20450;-73
2022/11/16 11:02:34;;;;;;;2.87;1.33;;;14.80;99.90;;;;;;6108675;23;20997;-72
2022/11/16 11:05:04;;;;;;;3.00;1.37;;;15.50;99.90;;;;;;6118096;23;20421;-73
2022/11/16 11:07:33;;;;;;;2.63;1.53;;;16.00;99.90;;;;;;6113148;23;20489;-73
2022/11/16 11:10:00;;;;;;;1.67;1.20;;;16.50;99.90;;;;;;6116225;23;20794;-72
2022/11/16 11:12:40;;;;;;;2.07;1.50;;;16.60;99.90;;;;;;6099917;23;21219;-72
2022/11/16 11:15:25;;;;;;;2.83;1.20;;;16.30;99.90;;;;;;6119049;23;20467;-72
2022/11/16 11:18:11;;;;;;;3.27;1.90;;;16.10;99.90;;;;;;6095176;23;20438;-71
2022/11/16 11:20:40;;;;;;;2.00;1.40;;;15.90;99.90;;;;;;6123425;23;20488;-71
2022/11/16 11:23:14;;;;;;;2.70;1.30;;;15.60;99.90;;;;;;6141812;23;20759;-72
2022/11/16 11:25:50;;;;;;;1.57;1.20;;;15.40;99.90;;;;;;6105176;23;20901;-72
2022/11/16 11:28:21;;;;;;;1.70;1.37;;;15.20;99.90;;;;;;6112027;23;20448;-71
2022/11/16 11:30:58;;;;;;;1.70;1.37;;;15.20;99.90;;;;;;6114261;23;20437;-72
2022/11/16 11:33:29;;;;;;;5.13;1.67;;;15.40;99.90;;;;;;6117659;23;20465;-72
2022/11/16 11:36:00;;;;;;;2.10;1.33;;;15.80;99.90;;;;;;6100891;23;20541;-72
2022/11/16 11:38:27;;;;;;;1.63;1.30;;;16.40;99.90;;;;;;6112226;23;21245;-72
2022/11/16 11:41:00;;;;;;;1.40;1.30;;;17.00;99.90;;;;;;6101629;23;20473;-73
2022/11/16 11:43:28;;;;;;;3.07;1.60;;;17.40;99.90;;;;;;6110411;23;20509;-72
2022/11/16 11:46:05;;;;;;;1.50;1.30;;;17.60;99.90;;;;;;6111807;23;20930;-72
2022/11/16 11:48:41;;;;;;;5.60;1.40;;;17.50;99.90;;;;;;6116598;23;20469;-72
2022/11/16 11:51:17;;;;;;;4.30;1.30;;;17.70;99.90;;;;;;6099130;23;20461;-72
2022/11/16 11:53:50;;;;;;;1.70;1.40;;;17.90;99.90;;;;;;6102846;23;20469;-72
2022/11/16 11:56:18;;;;;;;2.27;1.20;;;18.10;99.90;;;;;;6103789;23;21006;-72
2022/11/16 11:58:48;;;;;;;1.83;1.10;;;18.10;99.90;;;;;;6112557;23;20434;-72
2022/11/16 12:01:54;;;;;;;1.90;1.30;;;17.50;99.90;;;;;;6118795;23;20504;-72
2022/11/16 12:05:02;;;;;;;1.60;1.20;;;16.80;99.90;;;;;;6077660;23;20446;-71
2022/11/16 12:07:51;;;;;;;2.17;1.20;;;16.30;99.90;;;;;;6112436;23;20441;-72
2022/11/16 12:10:29;;;;;;;1.33;1.10;;;15.90;99.90;;;;;;6107897;23;20458;-72
2022/11/16 12:13:10;;;;;;;2.23;1.00;;;15.50;99.90;;;;;;6098647;23;20442;-72
2022/11/16 12:15:59;;;;;;;1.97;1.00;;;15.20;99.90;;;;;;6107036;23;20998;-71
2022/11/16 12:18:58;;;;;;;3.10;1.40;;;15.10;99.90;;;;;;6106248;23;20540;-72
2022/11/16 12:21:37;;;;;;;2.10;1.40;;;15.00;99.90;;;;;;6098816;23;20529;-72
2022/11/16 12:24:32;;;;;;;1.67;1.27;;;14.80;99.90;;;;;;6101618;23;20436;-72
2022/11/16 12:27:09;;;;;;;3.40;1.50;;;14.70;99.90;;;;;;6113874;23;20435;-72
2022/11/16 12:29:46;;;;;;;2.30;1.60;;;14.60;99.90;;;;;;6097412;23;20456;-72
2022/11/16 12:32:33;;;;;;;2.60;1.10;;;14.60;99.90;;;;;;6119424;23;20479;-72
2022/11/16 12:35:15;;;;;;;2.30;1.20;;;14.70;99.90;;;;;;6094661;23;20540;-72
2022/11/16 12:37:50;;;;;;;2.00;1.33;;;14.70;99.90;;;;;;6118298;23;20483;-72
2022/11/16 12:40:34;;;;;;;1.53;1.20;;;14.80;99.90;;;;;;6111818;23;20918;-72
2022/11/16 12:43:11;;;;;;;2.50;1.27;;;14.90;99.90;;;;;;6115383;23;20834;-72
2022/11/16 12:45:53;;;;;;;2.30;1.60;;;15.10;99.90;;;;;;6111182;23;20465;-71
2022/11/16 12:48:54;;;;;;;2.03;1.80;;;15.20;99.90;;;;;;6102034;23;20432;-72
2022/11/16 12:51:39;;;;;;;2.87;1.83;;;15.20;99.90;;;;;;6103266;23;20882;-72
2022/11/16 12:54:27;;;;;;;1.50;1.30;;;15.30;99.90;;;;;;6108928;23;20452;-72
2022/11/16 12:57:02;;;;;;;1.90;1.60;;;15.40;99.90;;;;;;6104528;23;20461;-72
2022/11/16 12:59:45;;;;;;;2.70;1.07;;;15.30;99.90;;;;;;6107919;23;20776;-72
2022/11/16 13:02:27;;;;;;;2.67;1.30;;;15.10;99.90;;;;;;6097904;23;20605;-72
2022/11/16 13:05:00;;;;;;;2.50;1.40;;;15.10;99.90;;;;;;6096844;23;20569;-72
2022/11/16 13:07:37;;;;;;;2.23;1.80;;;15.20;99.90;;;;;;6102709;23;20433;-72
2022/11/16 13:10:09;;;;;;;2.73;1.67;;;15.20;99.90;;;;;;6101191;23;20509;-71
2022/11/16 13:12:38;;;;;;;1.80;1.40;;;15.30;99.90;;;;;;6097880;23;20518;-71
2022/11/16 13:15:11;;;;;;;2.70;1.40;;;15.50;99.90;;;;;;6114021;23;20496;-72
2022/11/16 13:17:39;;;;;;;1.87;1.57;;;15.40;99.90;;;;;;6099721;23;20454;-72
2022/11/16 13:20:25;;;;;;;1.83;1.40;;;15.50;99.90;;;;;;6102797;23;20497;-72
2022/11/16 13:22:58;;;;;;;2.50;1.50;;;15.50;99.90;;;;;;6101625;23;20445;-72
2022/11/16 13:25:31;;;;;;;2.10;1.30;;;15.40;99.90;;;;;;6096025;23;20484;-72
2022/11/16 13:28:10;;;;;;;2.43;1.23;;;15.40;99.90;;;;;;6115119;23;20460;-72
2022/11/16 13:30:44;;;;;;;4.20;1.40;;;15.30;99.90;;;;;;6113253;23;20433;-72
2022/11/16 13:33:28;;;;;;;2.27;1.50;;;15.50;99.90;;;;;;6098374;23;20433;-72
2022/11/16 13:35:56;;;;;;;2.20;1.43;;;15.70;99.90;;;;;;6096228;23;20795;-72
2022/11/16 13:38:52;;;;;;;2.73;1.30;;;16.10;99.90;;;;;;6108516;23;20817;-72